Aviation Digital Data Service (ADDS)

Output produced by METARs form (0356 UTC 01 October 2014)
found at http://aviationweather.gov/adds/metars/
 
METAR text: KBFM 010353Z AUTO 11010KT 10SM CLR 24/21 A2992 RMK AO2 SLP130 T02390206
Conditions at: KBFM (MOBILE/BROOKLEY , AL, US) observed 0353 UTC 01 October 2014
Temperature: 23.9°C (75°F)
Dewpoint: 20.6°C (69°F) [RH = 82%]
Pressure (altimeter): 29.92 inches Hg (1013.3 mb)
[Sea-level pressure: 1013.0 mb]
Winds: from the ESE (110 degrees) at 12 MPH (10 knots; 5.2 m/s)
Visibility: 10 or more miles (16+ km)
Ceiling: at least 12,000 feet AGL
Clouds: sky clear below 12,000 feet AGL
Weather: automated observation with no human augmentation;
there may or may not be significant weather present at this time